sensor_id;sensor_type;location;lat;lon;timestamp;pressure;altitude;pressure_sealevel;temperature;humidity
85186;BME280;75557;51.048;-0.424;2024-01-30T00:02:02;101688.79;;;16.16;20.04
85186;BME280;75557;51.048;-0.424;2024-01-30T00:04:28;101684.43;;;16.00;20.09
85186;BME280;75557;51.048;-0.424;2024-01-30T00:06:54;101684.99;;;16.46;20.09
85186;BME280;75557;51.048;-0.424;2024-01-30T00:09:19;101684.40;;;15.95;20.22
85186;BME280;75557;51.048;-0.424;2024-01-30T00:11:44;101675.91;;;15.85;20.17
85186;BME280;75557;51.048;-0.424;2024-01-30T00:14:10;101684.07;;;15.97;20.40
85186;BME280;75557;51.048;-0.424;2024-01-30T00:16:35;101683.79;;;15.60;20.64
85186;BME280;75557;51.048;-0.424;2024-01-30T00:19:01;101675.53;;;15.77;20.45
85186;BME280;75557;51.048;-0.424;2024-01-30T00:21:27;101687.75;;;15.49;20.52
85186;BME280;75557;51.048;-0.424;2024-01-30T00:23:52;101682.62;;;16.05;20.48
85186;BME280;75557;51.048;-0.424;2024-01-30T00:26:18;101691.32;;;15.43;20.59
85186;BME280;75557;51.048;-0.424;2024-01-30T00:28:44;101681.67;;;16.07;20.34
85186;BME280;75557;51.048;-0.424;2024-01-30T00:31:10;101684.22;;;16.02;20.22
85186;BME280;75557;51.048;-0.424;2024-01-30T00:33:35;101680.63;;;16.24;20.10
85186;BME280;75557;51.048;-0.424;2024-01-30T00:36:00;101676.57;;;15.91;20.12
85186;BME280;75557;51.048;-0.424;2024-01-30T00:38:26;101679.87;;;16.53;19.99
85186;BME280;75557;51.048;-0.424;2024-01-30T00:40:51;101680.00;;;16.09;20.07
85186;BME280;75557;51.048;-0.424;2024-01-30T00:43:17;101673.25;;;16.51;19.91
85186;BME280;75557;51.048;-0.424;2024-01-30T00:45:43;101669.08;;;16.46;19.92
85186;BME280;75557;51.048;-0.424;2024-01-30T00:48:08;101668.84;;;16.45;19.79
85186;BME280;75557;51.048;-0.424;2024-01-30T00:50:34;101651.99;;;16.45;19.80
85186;BME280;75557;51.048;-0.424;2024-01-30T00:52:59;101648.36;;;16.57;19.85
85186;BME280;75557;51.048;-0.424;2024-01-30T00:55:25;101646.25;;;16.48;19.91
85186;BME280;75557;51.048;-0.424;2024-01-30T00:57:50;101640.68;;;16.41;19.86
85186;BME280;75557;51.048;-0.424;2024-01-30T01:00:16;101654.96;;;16.30;19.95
85186;BME280;75557;51.048;-0.424;2024-01-30T01:02:42;101664.00;;;16.49;19.89
85186;BME280;75557;51.048;-0.424;2024-01-30T01:05:07;101656.87;;;16.38;19.86
85186;BME280;75557;51.048;-0.424;2024-01-30T01:07:32;101674.59;;;16.28;19.96
85186;BME280;75557;51.048;-0.424;2024-01-30T01:09:58;101665.01;;;16.67;19.85
85186;BME280;75557;51.048;-0.424;2024-01-30T01:12:23;101658.38;;;16.43;19.93
85186;BME280;75557;51.048;-0.424;2024-01-30T01:14:49;101662.83;;;15.84;19.92
85186;BME280;75557;51.048;-0.424;2024-01-30T01:17:15;101658.94;;;15.96;19.95
85186;BME280;75557;51.048;-0.424;2024-01-30T01:19:40;101655.37;;;16.26;19.94
85186;BME280;75557;51.048;-0.424;2024-01-30T01:22:06;101662.56;;;16.10;19.93
85186;BME280;75557;51.048;-0.424;2024-01-30T01:24:31;101672.47;;;16.34;19.99
85186;BME280;75557;51.048;-0.424;2024-01-30T01:26:58;101668.59;;;15.99;20.06
85186;BME280;75557;51.048;-0.424;2024-01-30T01:29:22;101676.64;;;16.34;19.95
85186;BME280;75557;51.048;-0.424;2024-01-30T01:31:48;101685.90;;;15.76;20.07
85186;BME280;75557;51.048;-0.424;2024-01-30T01:34:13;101687.88;;;15.71;20.07
85186;BME280;75557;51.048;-0.424;2024-01-30T01:36:39;101696.88;;;15.74;20.19
85186;BME280;75557;51.048;-0.424;2024-01-30T01:39:05;101693.28;;;15.73;20.18
85186;BME280;75557;51.048;-0.424;2024-01-30T01:41:30;101692.21;;;15.40;20.52
85186;BME280;75557;51.048;-0.424;2024-01-30T01:43:56;101688.43;;;15.65;20.19
85186;BME280;75557;51.048;-0.424;2024-01-30T01:46:22;101693.44;;;15.70;20.28
85186;BME280;75557;51.048;-0.424;2024-01-30T01:48:47;101680.37;;;15.48;20.41
85186;BME280;75557;51.048;-0.424;2024-01-30T01:51:13;101694.81;;;15.04;20.64
85186;BME280;75557;51.048;-0.424;2024-01-30T01:53:38;101698.84;;;15.52;20.28
85186;BME280;75557;51.048;-0.424;2024-01-30T01:56:05;101700.45;;;16.21;20.06
85186;BME280;75557;51.048;-0.424;2024-01-30T01:58:29;101701.32;;;16.18;20.04
85186;BME280;75557;51.048;-0.424;2024-01-30T02:00:56;101705.29;;;16.37;19.73
85186;BME280;75557;51.048;-0.424;2024-01-30T02:03:21;101701.38;;;16.52;19.72
85186;BME280;75557;51.048;-0.424;2024-01-30T02:05:46;101695.76;;;16.15;19.70
85186;BME280;75557;51.048;-0.424;2024-01-30T02:08:11;101702.27;;;16.55;19.57
85186;BME280;75557;51.048;-0.424;2024-01-30T02:10:37;101707.74;;;16.47;19.53
85186;BME280;75557;51.048;-0.424;2024-01-30T02:13:04;101696.84;;;16.47;19.56
85186;BME280;75557;51.048;-0.424;2024-01-30T02:15:28;101698.45;;;16.36;19.53
85186;BME280;75557;51.048;-0.424;2024-01-30T02:17:54;101705.32;;;16.44;19.41
85186;BME280;75557;51.048;-0.424;2024-01-30T02:20:19;101714.14;;;16.39;19.63
85186;BME280;75557;51.048;-0.424;2024-01-30T02:22:45;101713.64;;;16.13;19.61
85186;BME280;75557;51.048;-0.424;2024-01-30T02:25:10;101708.76;;;16.54;19.66
85186;BME280;75557;51.048;-0.424;2024-01-30T02:27:36;101710.83;;;16.43;19.60
85186;BME280;75557;51.048;-0.424;2024-01-30T02:30:01;101709.55;;;16.47;19.62
85186;BME280;75557;51.048;-0.424;2024-01-30T02:32:27;101708.35;;;16.34;19.56
85186;BME280;75557;51.048;-0.424;2024-01-30T02:34:52;101715.52;;;16.12;19.74
85186;BME280;75557;51.048;-0.424;2024-01-30T02:37:18;101715.35;;;16.17;19.75
85186;BME280;75557;51.048;-0.424;2024-01-30T02:39:44;101718.75;;;16.36;19.75
85186;BME280;75557;51.048;-0.424;2024-01-30T02:42:09;101714.17;;;16.15;19.80
85186;BME280;75557;51.048;-0.424;2024-01-30T02:44:35;101716.55;;;16.13;19.70
85186;BME280;75557;51.048;-0.424;2024-01-30T02:47:00;101714.13;;;16.12;19.79
85186;BME280;75557;51.048;-0.424;2024-01-30T02:49:26;101712.86;;;15.69;19.84
85186;BME280;75557;51.048;-0.424;2024-01-30T02:51:53;101715.51;;;15.91;20.02
85186;BME280;75557;51.048;-0.424;2024-01-30T02:54:17;101700.75;;;15.88;20.08
85186;BME280;75557;51.048;-0.424;2024-01-30T02:56:42;101706.62;;;15.80;20.07
85186;BME280;75557;51.048;-0.424;2024-01-30T02:59:08;101712.54;;;15.55;20.23
85186;BME280;75557;51.048;-0.424;2024-01-30T03:01:42;101711.84;;;15.60;20.12
85186;BME280;75557;51.048;-0.424;2024-01-30T03:03:59;101708.69;;;15.83;20.16
85186;BME280;75557;51.048;-0.424;2024-01-30T03:06:25;101697.10;;;15.70;20.23
85186;BME280;75557;51.048;-0.424;2024-01-30T03:08:50;101700.76;;;15.72;20.07
85186;BME280;75557;51.048;-0.424;2024-01-30T03:11:16;101698.91;;;15.67;20.11
85186;BME280;75557;51.048;-0.424;2024-01-30T03:13:41;101697.84;;;15.98;20.00
85186;BME280;75557;51.048;-0.424;2024-01-30T03:16:08;101701.69;;;15.73;20.11
85186;BME280;75557;51.048;-0.424;2024-01-30T03:18:33;101699.38;;;15.55;20.22
85186;BME280;75557;51.048;-0.424;2024-01-30T03:20:58;101705.90;;;15.59;20.24
85186;BME280;75557;51.048;-0.424;2024-01-30T03:23:23;101702.29;;;15.59;20.09
85186;BME280;75557;51.048;-0.424;2024-01-30T03:25:49;101700.04;;;15.74;20.20
85186;BME280;75557;51.048;-0.424;2024-01-30T03:28:15;101698.74;;;15.70;20.08
85186;BME280;75557;51.048;-0.424;2024-01-30T03:30:40;101699.09;;;15.80;20.03
85186;BME280;75557;51.048;-0.424;2024-01-30T03:33:06;101703.47;;;15.76;20.08
85186;BME280;75557;51.048;-0.424;2024-01-30T03:35:31;101708.47;;;15.91;20.01
85186;BME280;75557;51.048;-0.424;2024-01-30T03:37:57;101712.65;;;15.88;19.93
85186;BME280;75557;51.048;-0.424;2024-01-30T03:40:22;101707.51;;;16.13;19.82
85186;BME280;75557;51.048;-0.424;2024-01-30T03:42:48;101707.32;;;15.94;20.05
85186;BME280;75557;51.048;-0.424;2024-01-30T03:45:14;101701.30;;;16.11;19.87
85186;BME280;75557;51.048;-0.424;2024-01-30T03:47:39;101701.17;;;16.16;19.76
85186;BME280;75557;51.048;-0.424;2024-01-30T03:50:05;101707.70;;;16.12;19.73
85186;BME280;75557;51.048;-0.424;2024-01-30T03:52:30;101711.13;;;16.24;19.72
85186;BME280;75557;51.048;-0.424;2024-01-30T03:54:56;101706.30;;;15.91;19.74
85186;BME280;75557;51.048;-0.424;2024-01-30T03:57:21;101701.16;;;16.06;19.77
85186;BME280;75557;51.048;-0.424;2024-01-30T03:59:47;101705.54;;;16.46;19.74
85186;BME280;75557;51.048;-0.424;2024-01-30T04:02:12;101699.00;;;15.79;19.88
85186;BME280;75557;51.048;-0.424;2024-01-30T04:04:38;101708.56;;;16.03;19.85
85186;BME280;75557;51.048;-0.424;2024-01-30T04:07:03;101706.60;;;16.22;19.80
85186;BME280;75557;51.048;-0.424;2024-01-30T04:09:29;101710.06;;;15.89;19.84
85186;BME280;75557;51.048;-0.424;2024-01-30T04:11:54;101714.78;;;16.18;19.82
85186;BME280;75557;51.048;-0.424;2024-01-30T04:14:20;101714.40;;;16.01;19.83
85186;BME280;75557;51.048;-0.424;2024-01-30T04:16:46;101707.14;;;16.19;19.77
85186;BME280;75557;51.048;-0.424;2024-01-30T04:19:11;101710.78;;;16.11;19.83
85186;BME280;75557;51.048;-0.424;2024-01-30T04:21:37;101713.96;;;16.23;19.89
85186;BME280;75557;51.048;-0.424;2024-01-30T04:24:02;101711.09;;;16.22;19.90
85186;BME280;75557;51.048;-0.424;2024-01-30T04:26:28;101722.44;;;15.76;20.09
85186;BME280;75557;51.048;-0.424;2024-01-30T04:28:53;101724.84;;;16.10;19.96
85186;BME280;75557;51.048;-0.424;2024-01-30T04:31:19;101724.44;;;16.08;20.01
85186;BME280;75557;51.048;-0.424;2024-01-30T04:33:44;101720.34;;;15.77;20.13
85186;BME280;75557;51.048;-0.424;2024-01-30T04:36:10;101724.15;;;15.85;20.06
85186;BME280;75557;51.048;-0.424;2024-01-30T04:38:35;101719.55;;;15.86;20.04
85186;BME280;75557;51.048;-0.424;2024-01-30T04:41:01;101721.73;;;15.52;20.10
85186;BME280;75557;51.048;-0.424;2024-01-30T04:43:27;101723.08;;;15.71;20.15
85186;BME280;75557;51.048;-0.424;2024-01-30T04:45:52;101728.05;;;15.59;20.14
85186;BME280;75557;51.048;-0.424;2024-01-30T04:48:18;101727.59;;;15.46;20.18
85186;BME280;75557;51.048;-0.424;2024-01-30T04:50:43;101733.05;;;15.66;20.18
85186;BME280;75557;51.048;-0.424;2024-01-30T04:53:09;101734.53;;;15.50;20.28
85186;BME280;75557;51.048;-0.424;2024-01-30T04:55:35;101738.61;;;15.39;20.34
85186;BME280;75557;51.048;-0.424;2024-01-30T04:58:00;101740.60;;;15.54;20.52
85186;BME280;75557;51.048;-0.424;2024-01-30T05:00:25;101748.78;;;15.68;20.39
85186;BME280;75557;51.048;-0.424;2024-01-30T05:02:51;101748.46;;;15.21;20.70
85186;BME280;75557;51.048;-0.424;2024-01-30T05:05:16;101755.13;;;15.45;20.54
85186;BME280;75557;51.048;-0.424;2024-01-30T05:07:42;101765.05;;;15.34;20.38
85186;BME280;75557;51.048;-0.424;2024-01-30T05:10:08;101773.42;;;15.48;20.38
85186;BME280;75557;51.048;-0.424;2024-01-30T05:12:33;101762.49;;;15.49;20.32
85186;BME280;75557;51.048;-0.424;2024-01-30T05:14:59;101767.00;;;15.54;20.23
85186;BME280;75557;51.048;-0.424;2024-01-30T05:17:24;101781.72;;;15.50;20.28
85186;BME280;75557;51.048;-0.424;2024-01-30T05:19:50;101787.22;;;15.47;20.28
85186;BME280;75557;51.048;-0.424;2024-01-30T05:22:15;101793.30;;;15.58;20.22
85186;BME280;75557;51.048;-0.424;2024-01-30T05:24:41;101794.77;;;15.75;20.13
85186;BME280;75557;51.048;-0.424;2024-01-30T05:27:07;101797.57;;;15.86;20.16
85186;BME280;75557;51.048;-0.424;2024-01-30T05:29:32;101802.57;;;15.94;19.92
85186;BME280;75557;51.048;-0.424;2024-01-30T05:31:58;101797.37;;;15.86;19.85
85186;BME280;75557;51.048;-0.424;2024-01-30T05:34:23;101797.16;;;15.75;19.97
85186;BME280;75557;51.048;-0.424;2024-01-30T05:36:49;101801.72;;;16.27;19.85
85186;BME280;75557;51.048;-0.424;2024-01-30T05:39:14;101810.86;;;16.32;19.83
85186;BME280;75557;51.048;-0.424;2024-01-30T05:41:40;101825.21;;;15.83;19.90
85186;BME280;75557;51.048;-0.424;2024-01-30T05:44:05;101830.66;;;15.96;19.76
85186;BME280;75557;51.048;-0.424;2024-01-30T05:46:31;101835.07;;;16.25;19.79
85186;BME280;75557;51.048;-0.424;2024-01-30T05:48:57;101841.59;;;16.15;19.68
85186;BME280;75557;51.048;-0.424;2024-01-30T05:51:22;101842.50;;;16.08;19.72
85186;BME280;75557;51.048;-0.424;2024-01-30T05:53:48;101839.33;;;15.93;19.79
85186;BME280;75557;51.048;-0.424;2024-01-30T05:56:18;101838.25;;;16.07;19.76
85186;BME280;75557;51.048;-0.424;2024-01-30T05:58:39;101845.46;;;15.57;19.93
85186;BME280;75557;51.048;-0.424;2024-01-30T06:01:06;101848.69;;;15.75;19.94
85186;BME280;75557;51.048;-0.424;2024-01-30T06:03:30;101841.85;;;15.68;20.09
85186;BME280;75557;51.048;-0.424;2024-01-30T06:05:55;101854.21;;;15.80;20.03
85186;BME280;75557;51.048;-0.424;2024-01-30T06:08:21;101857.21;;;15.64;19.97
85186;BME280;75557;51.048;-0.424;2024-01-30T06:10:47;101864.58;;;15.89;19.79
85186;BME280;75557;51.048;-0.424;2024-01-30T06:13:12;101872.57;;;15.64;20.03
85186;BME280;75557;51.048;-0.424;2024-01-30T06:15:38;101877.71;;;15.10;20.36
85186;BME280;75557;51.048;-0.424;2024-01-30T06:18:04;101878.53;;;15.38;20.15
85186;BME280;75557;51.048;-0.424;2024-01-30T06:20:29;101876.83;;;15.53;19.99
85186;BME280;75557;51.048;-0.424;2024-01-30T06:22:54;101885.02;;;15.86;19.86
85186;BME280;75557;51.048;-0.424;2024-01-30T06:25:20;101894.51;;;15.72;19.79
85186;BME280;75557;51.048;-0.424;2024-01-30T06:27:45;101900.37;;;16.01;19.70
85186;BME280;75557;51.048;-0.424;2024-01-30T06:30:12;101909.59;;;15.75;19.71
85186;BME280;75557;51.048;-0.424;2024-01-30T06:32:36;101911.87;;;15.61;19.67
85186;BME280;75557;51.048;-0.424;2024-01-30T06:35:03;101917.84;;;15.73;19.79
85186;BME280;75557;51.048;-0.424;2024-01-30T06:37:27;101928.38;;;15.28;19.88
85186;BME280;75557;51.048;-0.424;2024-01-30T06:39:53;101938.12;;;15.55;19.68
85186;BME280;75557;51.048;-0.424;2024-01-30T06:42:19;101938.90;;;15.87;19.60
85186;BME280;75557;51.048;-0.424;2024-01-30T06:44:44;101942.75;;;15.16;20.03
85186;BME280;75557;51.048;-0.424;2024-01-30T06:47:10;101945.97;;;15.53;19.85
85186;BME280;75557;51.048;-0.424;2024-01-30T06:49:35;101948.91;;;15.49;19.96
85186;BME280;75557;51.048;-0.424;2024-01-30T06:52:01;101952.19;;;15.15;20.42
85186;BME280;75557;51.048;-0.424;2024-01-30T06:54:26;101956.47;;;15.34;20.35
85186;BME280;75557;51.048;-0.424;2024-01-30T06:56:52;101959.42;;;15.19;20.19
85186;BME280;75557;51.048;-0.424;2024-01-30T06:59:17;101960.13;;;15.46;20.26
85186;BME280;75557;51.048;-0.424;2024-01-30T07:01:43;101971.19;;;15.42;20.31
85186;BME280;75557;51.048;-0.424;2024-01-30T07:04:08;101989.40;;;15.23;20.47
85186;BME280;75557;51.048;-0.424;2024-01-30T07:06:34;101982.90;;;15.59;20.16
85186;BME280;75557;51.048;-0.424;2024-01-30T07:08:59;101994.08;;;15.56;20.24
85186;BME280;75557;51.048;-0.424;2024-01-30T07:11:25;102008.92;;;15.46;20.45
85186;BME280;75557;51.048;-0.424;2024-01-30T07:13:51;102008.83;;;15.77;20.24
85186;BME280;75557;51.048;-0.424;2024-01-30T07:16:16;102019.89;;;15.71;20.19
85186;BME280;75557;51.048;-0.424;2024-01-30T07:18:42;102013.62;;;16.10;19.69
85186;BME280;75557;51.048;-0.424;2024-01-30T07:21:07;102016.43;;;16.02;19.53
85186;BME280;75557;51.048;-0.424;2024-01-30T07:23:33;102021.26;;;15.99;19.59
85186;BME280;75557;51.048;-0.424;2024-01-30T07:25:58;102024.00;;;15.65;19.60
85186;BME280;75557;51.048;-0.424;2024-01-30T07:28:24;102023.83;;;15.83;19.57
85186;BME280;75557;51.048;-0.424;2024-01-30T07:30:49;102023.52;;;16.09;19.51
85186;BME280;75557;51.048;-0.424;2024-01-30T07:33:15;102038.46;;;15.95;19.41
85186;BME280;75557;51.048;-0.424;2024-01-30T07:35:40;102053.88;;;15.75;19.66
85186;BME280;75557;51.048;-0.424;2024-01-30T07:38:06;102052.91;;;15.78;19.82
85186;BME280;75557;51.048;-0.424;2024-01-30T07:40:32;102051.16;;;16.01;19.58
85186;BME280;75557;51.048;-0.424;2024-01-30T07:42:57;102049.57;;;16.26;19.48
85186;BME280;75557;51.048;-0.424;2024-01-30T07:45:23;102063.81;;;15.40;20.02
85186;BME280;75557;51.048;-0.424;2024-01-30T07:47:48;102067.86;;;15.59;19.91
85186;BME280;75557;51.048;-0.424;2024-01-30T07:50:14;102070.04;;;15.61;19.85
85186;BME280;75557;51.048;-0.424;2024-01-30T07:52:39;102071.15;;;15.23;19.91
85186;BME280;75557;51.048;-0.424;2024-01-30T07:55:05;102078.58;;;15.24;20.00
85186;BME280;75557;51.048;-0.424;2024-01-30T07:57:30;102085.77;;;15.31;20.12
85186;BME280;75557;51.048;-0.424;2024-01-30T07:59:56;102093.01;;;15.44;20.06
85186;BME280;75557;51.048;-0.424;2024-01-30T08:02:21;102101.46;;;15.17;20.22
85186;BME280;75557;51.048;-0.424;2024-01-30T08:04:47;102107.80;;;15.60;19.85
85186;BME280;75557;51.048;-0.424;2024-01-30T08:07:13;102114.09;;;15.37;19.97
85186;BME280;75557;51.048;-0.424;2024-01-30T08:09:38;102120.66;;;15.25;20.03
85186;BME280;75557;51.048;-0.424;2024-01-30T08:12:04;102120.83;;;15.69;19.71
85186;BME280;75557;51.048;-0.424;2024-01-30T08:14:29;102125.34;;;15.94;19.68
85186;BME280;75557;51.048;-0.424;2024-01-30T08:16:55;102129.88;;;15.75;19.77
85186;BME280;75557;51.048;-0.424;2024-01-30T08:19:20;102140.16;;;15.79;19.71
85186;BME280;75557;51.048;-0.424;2024-01-30T08:21:46;102145.77;;;15.62;19.82
85186;BME280;75557;51.048;-0.424;2024-01-30T08:24:11;102144.56;;;15.78;19.76
85186;BME280;75557;51.048;-0.424;2024-01-30T08:26:37;102147.20;;;15.69;19.92
85186;BME280;75557;51.048;-0.424;2024-01-30T08:29:02;102145.74;;;15.63;19.84
85186;BME280;75557;51.048;-0.424;2024-01-30T08:31:28;102147.39;;;15.91;19.71
85186;BME280;75557;51.048;-0.424;2024-01-30T08:33:54;102148.28;;;15.89;19.56
85186;BME280;75557;51.048;-0.424;2024-01-30T08:36:20;102150.60;;;16.01;19.58
85186;BME280;75557;51.048;-0.424;2024-01-30T08:38:45;102151.24;;;16.28;19.42
85186;BME280;75557;51.048;-0.424;2024-01-30T08:41:10;102152.67;;;16.24;19.15
85186;BME280;75557;51.048;-0.424;2024-01-30T08:43:36;102161.22;;;16.54;19.19
85186;BME280;75557;51.048;-0.424;2024-01-30T08:46:01;102169.61;;;16.52;19.16
85186;BME280;75557;51.048;-0.424;2024-01-30T08:48:27;102169.49;;;16.56;19.08
85186;BME280;75557;51.048;-0.424;2024-01-30T08:50:52;102169.23;;;16.30;19.03
85186;BME280;75557;51.048;-0.424;2024-01-30T08:53:18;102171.49;;;16.10;19.15
85186;BME280;75557;51.048;-0.424;2024-01-30T08:55:44;102175.93;;;16.39;19.04
85186;BME280;75557;51.048;-0.424;2024-01-30T08:58:10;102177.85;;;16.41;18.99
85186;BME280;75557;51.048;-0.424;2024-01-30T09:00:34;102176.12;;;16.44;19.04
85186;BME280;75557;51.048;-0.424;2024-01-30T09:03:00;102182.50;;;16.16;19.15
85186;BME280;75557;51.048;-0.424;2024-01-30T09:05:26;102176.33;;;16.47;18.98
85186;BME280;75557;51.048;-0.424;2024-01-30T09:07:51;102182.44;;;16.23;19.00
85186;BME280;75557;51.048;-0.424;2024-01-30T09:10:17;102187.42;;;16.29;19.07
85186;BME280;75557;51.048;-0.424;2024-01-30T09:12:42;102195.31;;;16.00;19.16
85186;BME280;75557;51.048;-0.424;2024-01-30T09:15:09;102201.00;;;16.28;19.04
85186;BME280;75557;51.048;-0.424;2024-01-30T09:17:33;102202.58;;;16.10;19.20
85186;BME280;75557;51.048;-0.424;2024-01-30T09:19:59;102207.72;;;16.36;19.16
85186;BME280;75557;51.048;-0.424;2024-01-30T09:22:24;102213.98;;;16.01;19.26
85186;BME280;75557;51.048;-0.424;2024-01-30T09:24:50;102217.44;;;15.89;19.28
85186;BME280;75557;51.048;-0.424;2024-01-30T09:27:15;102223.50;;;15.63;19.41
85186;BME280;75557;51.048;-0.424;2024-01-30T09:29:41;102228.19;;;15.90;19.42
85186;BME280;75557;51.048;-0.424;2024-01-30T09:32:07;102227.80;;;15.66;19.44
85186;BME280;75557;51.048;-0.424;2024-01-30T09:34:32;102231.13;;;16.09;19.41
85186;BME280;75557;51.048;-0.424;2024-01-30T09:36:58;102232.07;;;16.01;19.24
85186;BME280;75557;51.048;-0.424;2024-01-30T09:39:23;102236.01;;;15.59;19.63
85186;BME280;75557;51.048;-0.424;2024-01-30T09:41:55;102239.13;;;15.85;19.50
85186;BME280;75557;51.048;-0.424;2024-01-30T09:44:15;102242.32;;;15.66;19.67
85186;BME280;75557;51.048;-0.424;2024-01-30T09:46:40;102243.62;;;15.83;19.63
85186;BME280;75557;51.048;-0.424;2024-01-30T09:49:06;102250.87;;;15.92;19.43
85186;BME280;75557;51.048;-0.424;2024-01-30T09:51:31;102255.82;;;15.77;19.53
85186;BME280;75557;51.048;-0.424;2024-01-30T09:53:56;102257.88;;;15.67;19.52
85186;BME280;75557;51.048;-0.424;2024-01-30T09:56:22;102259.47;;;15.76;19.41
85186;BME280;75557;51.048;-0.424;2024-01-30T09:58:48;102264.52;;;16.07;19.40
85186;BME280;75557;51.048;-0.424;2024-01-30T10:01:13;102267.54;;;15.52;19.74
85186;BME280;75557;51.048;-0.424;2024-01-30T10:03:39;102269.46;;;15.96;19.38
85186;BME280;75557;51.048;-0.424;2024-01-30T10:06:05;102269.22;;;15.78;19.47
85186;BME280;75557;51.048;-0.424;2024-01-30T10:08:30;102269.41;;;16.12;19.21
85186;BME280;75557;51.048;-0.424;2024-01-30T10:10:55;102275.00;;;15.65;19.43
85186;BME280;75557;51.048;-0.424;2024-01-30T10:13:21;102274.29;;;16.33;19.26
85186;BME280;75557;51.048;-0.424;2024-01-30T10:15:47;102279.71;;;16.30;19.09
85186;BME280;75557;51.048;-0.424;2024-01-30T10:18:12;102282.37;;;16.29;18.93
85186;BME280;75557;51.048;-0.424;2024-01-30T10:20:38;102292.07;;;16.13;18.99
85186;BME280;75557;51.048;-0.424;2024-01-30T10:23:03;102299.30;;;16.59;18.99
85186;BME280;75557;51.048;-0.424;2024-01-30T10:25:29;102304.26;;;16.49;18.89
85186;BME280;75557;51.048;-0.424;2024-01-30T10:27:55;102303.32;;;16.29;18.97
85186;BME280;75557;51.048;-0.424;2024-01-30T10:30:20;102308.25;;;16.23;18.89
85186;BME280;75557;51.048;-0.424;2024-01-30T10:32:45;102309.21;;;15.91;18.94
85186;BME280;75557;51.048;-0.424;2024-01-30T10:35:11;102314.62;;;16.63;18.89
85186;BME280;75557;51.048;-0.424;2024-01-30T10:37:36;102320.25;;;16.64;18.88
85186;BME280;75557;51.048;-0.424;2024-01-30T10:40:03;102322.78;;;16.26;18.97
85186;BME280;75557;51.048;-0.424;2024-01-30T10:42:31;102332.75;;;16.27;18.91
85186;BME280;75557;51.048;-0.424;2024-01-30T10:44:59;102331.42;;;16.11;19.00
85186;BME280;75557;51.048;-0.424;2024-01-30T10:47:24;102334.65;;;16.58;18.92
85186;BME280;75557;51.048;-0.424;2024-01-30T10:49:45;102337.20;;;16.75;18.84
85186;BME280;75557;51.048;-0.424;2024-01-30T10:52:10;102338.18;;;16.04;19.03
85186;BME280;75557;51.048;-0.424;2024-01-30T10:54:36;102333.96;;;15.74;19.44
85186;BME280;75557;51.048;-0.424;2024-01-30T10:57:01;102341.36;;;15.99;19.28
85186;BME280;75557;51.048;-0.424;2024-01-30T10:59:26;102344.71;;;16.00;19.25
85186;BME280;75557;51.048;-0.424;2024-01-30T11:01:52;102345.52;;;16.32;19.15
85186;BME280;75557;51.048;-0.424;2024-01-30T11:04:18;102351.35;;;16.28;19.25
85186;BME280;75557;51.048;-0.424;2024-01-30T11:06:43;102356.73;;;16.02;19.24
85186;BME280;75557;51.048;-0.424;2024-01-30T11:09:11;102367.86;;;16.11;19.25
85186;BME280;75557;51.048;-0.424;2024-01-30T11:11:48;102372.04;;;16.23;19.18
85186;BME280;75557;51.048;-0.424;2024-01-30T11:14:00;102373.24;;;16.02;19.37
85186;BME280;75557;51.048;-0.424;2024-01-30T11:16:31;102376.33;;;16.00;19.31
85186;BME280;75557;51.048;-0.424;2024-01-30T11:18:51;102378.98;;;16.03;19.30
85186;BME280;75557;51.048;-0.424;2024-01-30T11:21:16;102382.55;;;15.92;19.37
85186;BME280;75557;51.048;-0.424;2024-01-30T11:23:42;102388.11;;;15.71;19.56
85186;BME280;75557;51.048;-0.424;2024-01-30T11:26:10;102385.22;;;15.98;19.46
85186;BME280;75557;51.048;-0.424;2024-01-30T11:28:33;102391.14;;;15.52;19.68
85186;BME280;75557;51.048;-0.424;2024-01-30T11:31:03;102395.78;;;15.23;19.88
85186;BME280;75557;51.048;-0.424;2024-01-30T11:33:28;102392.04;;;15.74;19.74
85186;BME280;75557;51.048;-0.424;2024-01-30T11:35:50;102391.01;;;15.46;19.81
85186;BME280;75557;51.048;-0.424;2024-01-30T11:38:15;102390.44;;;15.30;19.88
85186;BME280;75557;51.048;-0.424;2024-01-30T11:40:41;102393.77;;;15.30;19.93
85186;BME280;75557;51.048;-0.424;2024-01-30T11:43:08;102398.77;;;15.34;19.88
85186;BME280;75557;51.048;-0.424;2024-01-30T11:45:33;102402.22;;;15.02;20.04
85186;BME280;75557;51.048;-0.424;2024-01-30T11:47:58;102406.42;;;15.29;19.95
85186;BME280;75557;51.048;-0.424;2024-01-30T11:50:24;102405.90;;;15.41;19.73
85186;BME280;75557;51.048;-0.424;2024-01-30T11:52:49;102406.61;;;15.69;19.41
85186;BME280;75557;51.048;-0.424;2024-01-30T11:55:14;102408.09;;;16.05;19.25
85186;BME280;75557;51.048;-0.424;2024-01-30T11:57:40;102405.77;;;15.96;19.24
85186;BME280;75557;51.048;-0.424;2024-01-30T12:00:13;102407.83;;;16.33;19.16
85186;BME280;75557;51.048;-0.424;2024-01-30T12:02:31;102404.33;;;16.31;19.12
85186;BME280;75557;51.048;-0.424;2024-01-30T12:04:57;102406.11;;;16.14;19.11
85186;BME280;75557;51.048;-0.424;2024-01-30T12:07:22;102412.36;;;16.57;18.95
85186;BME280;75557;51.048;-0.424;2024-01-30T12:09:52;102416.21;;;16.29;18.89
85186;BME280;75557;51.048;-0.424;2024-01-30T12:12:13;102414.44;;;16.08;18.83
85186;BME280;75557;51.048;-0.424;2024-01-30T12:14:39;102415.86;;;16.30;18.84
85186;BME280;75557;51.048;-0.424;2024-01-30T12:17:04;102415.79;;;16.38;18.84
85186;BME280;75557;51.048;-0.424;2024-01-30T12:19:30;102420.93;;;16.20;18.83
85186;BME280;75557;51.048;-0.424;2024-01-30T12:21:56;102415.33;;;16.18;18.90
85186;BME280;75557;51.048;-0.424;2024-01-30T12:24:21;102409.38;;;16.30;18.90
85186;BME280;75557;51.048;-0.424;2024-01-30T12:26:47;102411.58;;;16.37;19.00
85186;BME280;75557;51.048;-0.424;2024-01-30T12:29:14;102417.71;;;16.18;18.93
85186;BME280;75557;51.048;-0.424;2024-01-30T12:31:38;102426.92;;;15.76;19.10